createdAt,value
2018-07-01T00:00:49.405Z,53.20
2018-07-01T00:01:49.881Z,53.26
2018-07-01T00:02:50.357Z,53.23
2018-07-01T00:03:50.833Z,53.26
2018-07-01T00:04:51.306Z,53.41
2018-07-01T00:05:51.786Z,53.47
2018-07-01T00:06:52.259Z,53.58
2018-07-01T00:07:52.735Z,53.49
2018-07-01T00:08:53.212Z,53.49
2018-07-01T00:09:53.685Z,53.55
2018-07-01T00:10:54.161Z,53.61
2018-07-01T00:11:54.636Z,53.66
2018-07-01T00:12:55.111Z,53.63
2018-07-01T00:13:55.585Z,53.66
2018-07-01T00:14:56.061Z,53.78
2018-07-01T00:15:56.535Z,53.78
2018-07-01T00:16:57.012Z,53.93
2018-07-01T00:17:57.484Z,53.89
2018-07-01T00:18:57.957Z,53.89
2018-07-01T00:19:58.433Z,53.86
2018-07-01T00:20:58.905Z,53.83
2018-07-01T00:21:59.382Z,53.73
2018-07-01T00:22:59.857Z,53.82
2018-07-01T00:24:00.330Z,53.82
2018-07-01T00:25:00.804Z,53.75
2018-07-01T00:26:01.277Z,53.75
2018-07-01T00:27:01.752Z,53.72
2018-07-01T00:28:02.225Z,53.68
2018-07-01T00:29:02.697Z,53.56
2018-07-01T00:30:03.171Z,53.71
2018-07-01T00:31:03.645Z,53.68
2018-07-01T00:32:04.119Z,53.49
2018-07-01T00:33:04.590Z,53.54
2018-07-01T00:34:05.065Z,53.69
2018-07-01T00:35:05.536Z,53.57
2018-07-01T00:36:06.010Z,53.63
2018-07-01T00:37:06.483Z,53.66
2018-07-01T00:38:06.956Z,53.78
2018-07-01T00:39:07.432Z,53.53
2018-07-01T00:40:07.900Z,53.53
2018-07-01T00:41:08.373Z,53.40
2018-07-01T00:43:09.318Z,53.49
2018-07-01T00:44:09.793Z,53.51
2018-07-01T00:45:10.314Z,53.48
2018-07-01T00:46:10.734Z,53.42
2018-07-01T00:47:11.207Z,53.38
2018-07-01T00:48:11.679Z,53.66
2018-07-01T00:49:12.153Z,53.59
2018-07-01T00:50:12.622Z,53.53
2018-07-01T00:51:13.092Z,53.56
2018-07-01T00:52:13.565Z,53.49
2018-07-01T00:53:14.036Z,53.64
2018-07-01T00:54:14.508Z,53.67
2018-07-01T00:55:14.981Z,53.67
2018-07-01T00:56:15.454Z,53.63
2018-07-01T00:57:15.922Z,53.63
2018-07-01T00:58:16.395Z,53.51
2018-07-01T00:59:16.869Z,53.57
2018-07-01T01:00:17.341Z,53.59
2018-07-01T01:01:17.809Z,53.53
2018-07-01T01:02:18.280Z,53.77
2018-07-01T01:03:18.752Z,53.71
2018-07-01T01:04:19.223Z,53.77
2018-07-01T01:05:19.696Z,53.58
2018-07-01T01:06:20.166Z,53.67
2018-07-01T01:07:20.643Z,53.54
2018-07-01T01:08:21.111Z,53.70
2018-07-01T01:09:21.581Z,53.93
2018-07-01T01:10:22.054Z,53.96
2018-07-01T01:11:22.530Z,53.84
2018-07-01T01:12:22.999Z,53.80
2018-07-01T01:13:23.471Z,53.56
2018-07-01T01:14:23.946Z,53.68
2018-07-01T01:15:24.417Z,53.61
2018-07-01T01:16:24.892Z,53.55
2018-07-01T01:17:25.362Z,53.82
2018-07-01T01:18:25.837Z,53.79
2018-07-01T01:19:26.311Z,53.48
2018-07-01T01:20:26.786Z,53.60
2018-07-01T01:21:27.259Z,53.81
2018-07-01T01:22:27.734Z,53.90
2018-07-01T01:23:28.209Z,53.77
2018-07-01T01:24:28.685Z,53.77
2018-07-01T01:25:29.158Z,53.91
2018-07-01T01:26:29.632Z,53.94
2018-07-01T01:27:30.111Z,53.79
2018-07-01T01:28:30.582Z,54.15
2018-07-01T01:29:31.059Z,53.96
2018-07-01T01:30:31.536Z,53.99
2018-07-01T01:31:32.008Z,53.95
2018-07-01T01:32:32.484Z,53.98
2018-07-01T01:33:32.961Z,53.92
2018-07-01T01:34:33.436Z,53.94
2018-07-01T01:35:33.911Z,54.31
2018-07-01T01:36:34.386Z,54.06
2018-07-01T01:37:34.863Z,54.33
2018-07-01T01:38:35.336Z,54.08
2018-07-01T01:39:35.812Z,54.35
2018-07-01T01:40:36.336Z,54.38
2018-07-01T01:41:36.762Z,54.44
2018-07-01T01:42:37.237Z,54.32
2018-07-01T01:43:37.708Z,54.23
2018-07-01T01:44:38.185Z,54.37
2018-07-01T01:45:38.658Z,54.37
2018-07-01T01:46:39.134Z,54.49
2018-07-01T01:47:39.608Z,54.67
2018-07-01T01:48:40.085Z,54.67
2018-07-01T01:49:40.557Z,54.57
2018-07-01T01:50:41.029Z,54.54
2018-07-01T01:51:41.508Z,54.57
2018-07-01T01:52:41.978Z,54.60
2018-07-01T01:53:42.449Z,54.90
2018-07-01T01:54:42.925Z,54.96
2018-07-01T01:55:43.398Z,55.02
2018-07-01T01:56:43.873Z,54.98
2018-07-01T01:57:44.343Z,55.13
2018-07-01T01:58:44.818Z,55.25
2018-07-01T01:59:45.291Z,55.10
2018-07-01T02:00:45.765Z,55.07
2018-07-01T02:01:46.236Z,55.12
2018-07-01T02:02:46.709Z,55.15
2018-07-01T02:03:47.179Z,55.18
2018-07-01T02:04:47.652Z,55.24
2018-07-01T02:05:48.125Z,55.44
2018-07-01T02:06:48.596Z,55.53
2018-07-01T02:07:49.071Z,55.41
2018-07-01T02:08:49.541Z,55.38
2018-07-01T02:09:50.018Z,55.59
2018-07-01T02:10:50.484Z,55.56
2018-07-01T02:11:50.956Z,55.71
2018-07-01T02:12:51.428Z,55.76
2018-07-01T02:13:51.899Z,55.85
2018-07-01T02:14:52.369Z,55.85
2018-07-01T02:15:52.840Z,55.93
2018-07-01T02:16:53.313Z,55.84
2018-07-01T02:17:53.783Z,56.11
2018-07-01T02:18:54.255Z,56.05
2018-07-01T02:19:54.726Z,56.10
2018-07-01T02:20:55.197Z,56.04
2018-07-01T02:21:55.671Z,56.16
2018-07-01T02:22:56.144Z,56.16
2018-07-01T02:23:56.611Z,56.21
2018-07-01T02:24:57.087Z,56.30
2018-07-01T02:25:57.608Z,56.27
2018-07-01T02:26:58.027Z,56.38
2018-07-01T02:27:58.499Z,56.56
2018-07-01T02:28:58.969Z,56.56
2018-07-01T02:29:59.442Z,56.67
2018-07-01T02:30:59.915Z,56.61
2018-07-01T02:32:00.387Z,56.73
2018-07-01T02:33:00.860Z,56.85
2018-07-01T02:34:01.334Z,56.78
2018-07-01T02:35:01.820Z,56.90
2018-07-01T02:36:02.283Z,57.16
2018-07-01T02:37:02.753Z,57.10
2018-07-01T02:38:03.225Z,57.01
2018-07-01T02:39:03.697Z,57.12
2018-07-01T02:40:04.174Z,57.33
2018-07-01T02:41:04.649Z,57.42
2018-07-01T02:42:05.120Z,57.26
2018-07-01T02:43:05.597Z,57.41
2018-07-01T02:44:06.072Z,57.59
2018-07-01T02:45:06.547Z,57.76
2018-07-01T02:46:07.019Z,57.94
2018-07-01T02:47:07.496Z,57.93
2018-07-01T02:48:07.972Z,57.75
2018-07-01T02:49:08.446Z,58.02
2018-07-01T02:50:08.921Z,57.92
2018-07-01T02:51:09.397Z,58.01
2018-07-01T02:52:09.874Z,58.01
2018-07-01T02:53:10.347Z,57.98
2018-07-01T02:54:10.822Z,58.04
2018-07-01T02:55:11.375Z,58.03
2018-07-01T02:56:11.772Z,57.97
2018-07-01T02:57:12.248Z,58.44
2018-07-01T02:58:12.725Z,58.50
2018-07-01T02:59:13.197Z,58.58
2018-07-01T03:00:13.691Z,58.78
2018-07-01T03:01:14.147Z,58.93
2018-07-01T03:03:15.093Z,58.75
2018-07-01T03:04:15.569Z,58.77
2018-07-01T03:05:16.045Z,58.77
2018-07-01T03:06:16.515Z,59.07
2018-07-01T03:07:16.999Z,59.15
2018-07-01T03:08:17.467Z,59.24
2018-07-01T03:09:17.942Z,59.26
2018-07-01T03:10:18.412Z,59.29
2018-07-01T03:11:18.886Z,59.29
2018-07-01T03:12:19.360Z,59.37
2018-07-01T03:13:19.832Z,59.52
2018-07-01T03:14:20.304Z,59.63
2018-07-01T03:15:20.776Z,59.52
2018-07-01T03:16:21.250Z,59.51
2018-07-01T03:17:21.725Z,59.60
2018-07-01T03:18:22.197Z,59.65
2018-07-01T03:19:22.674Z,59.62
2018-07-01T03:20:23.140Z,59.62
2018-07-01T03:21:23.612Z,59.62
2018-07-01T03:22:24.084Z,59.59
2018-07-01T03:23:24.555Z,59.71
2018-07-01T03:24:25.026Z,59.64
2018-07-01T03:25:25.500Z,59.64
2018-07-01T03:26:26.019Z,59.61
2018-07-01T03:27:26.441Z,59.67
2018-07-01T03:28:26.913Z,59.75
2018-07-01T03:29:27.388Z,59.78
2018-07-01T03:30:27.860Z,59.75
2018-07-01T03:31:28.326Z,59.98
2018-07-01T03:32:28.796Z,60.01
2018-07-01T03:33:29.268Z,60.06
2018-07-01T03:34:29.749Z,60.06
2018-07-01T03:35:30.211Z,59.92
2018-07-01T03:36:30.682Z,60.09
2018-07-01T03:37:31.156Z,60.09
2018-07-01T03:38:31.626Z,60.11
2018-07-01T03:39:32.296Z,60.23
2018-07-01T03:40:32.568Z,60.17
2018-07-01T03:41:33.039Z,60.22
2018-07-01T03:42:33.512Z,60.28
2018-07-01T03:43:33.983Z,60.42
2018-07-01T03:44:34.456Z,60.45
2018-07-01T03:45:34.928Z,60.51
2018-07-01T03:46:35.451Z,60.48
2018-07-01T03:47:35.873Z,60.48
2018-07-01T03:48:36.344Z,60.44
2018-07-01T03:49:36.818Z,60.53
2018-07-01T03:50:37.291Z,60.64
2018-07-01T03:51:37.768Z,60.70
2018-07-01T03:52:38.239Z,60.67
2018-07-01T03:53:38.711Z,60.72
2018-07-01T03:54:39.188Z,60.69
2018-07-01T03:55:39.658Z,60.60
2018-07-01T03:56:40.134Z,60.72
2018-07-01T03:57:40.651Z,60.60
2018-07-01T03:58:41.089Z,60.77
2018-07-01T04:00:42.033Z,60.85
2018-07-01T04:01:42.514Z,61.08
2018-07-01T04:02:42.982Z,61.11
2018-07-01T04:03:43.457Z,61.05
2018-07-01T04:04:43.933Z,61.11
2018-07-01T04:05:44.412Z,61.11
2018-07-01T04:06:44.882Z,61.25
2018-07-01T04:07:45.357Z,61.24
2018-07-01T04:08:45.835Z,61.24
2018-07-01T04:09:46.306Z,61.44
2018-07-01T04:10:46.780Z,61.27
2018-07-01T04:11:47.310Z,61.33
2018-07-01T04:12:47.734Z,61.47
2018-07-01T04:13:48.208Z,61.44
2018-07-01T04:14:48.681Z,61.61
2018-07-01T04:15:49.156Z,61.67
2018-07-01T04:16:49.630Z,61.63
2018-07-01T04:17:50.105Z,61.64
2018-07-01T04:18:50.578Z,61.89
2018-07-01T04:19:51.055Z,61.92
2018-07-01T04:20:51.525Z,61.92
2018-07-01T04:21:52.001Z,61.89
2018-07-01T04:22:52.476Z,61.91
2018-07-01T04:23:52.947Z,61.94
2018-07-01T04:24:53.420Z,61.83
2018-07-01T04:25:53.895Z,61.88
2018-07-01T04:26:54.370Z,61.93
2018-07-01T04:27:54.842Z,61.85
2018-07-01T04:28:55.313Z,61.88
2018-07-01T04:29:55.785Z,61.93
2018-07-01T04:30:56.303Z,61.82
2018-07-01T04:31:56.729Z,61.88
2018-07-01T04:32:57.204Z,61.79
2018-07-01T04:33:57.675Z,61.82
2018-07-01T04:34:58.147Z,61.84
2018-07-01T04:35:58.638Z,61.84
2018-07-01T04:36:59.093Z,61.81
2018-07-01T04:37:59.568Z,61.78
2018-07-01T04:39:00.034Z,61.78
2018-07-01T04:40:00.504Z,61.84
2018-07-01T04:41:00.976Z,61.84
2018-07-01T04:42:01.447Z,61.86
2018-07-01T04:43:01.918Z,61.95
2018-07-01T04:44:02.392Z,61.92
2018-07-01T04:45:02.862Z,61.83
2018-07-01T04:46:03.332Z,61.97
2018-07-01T04:47:03.853Z,62.00
2018-07-01T04:48:04.275Z,62.03
2018-07-01T04:49:04.748Z,62.03
2018-07-01T04:50:05.217Z,62.08
2018-07-01T04:51:05.690Z,62.05
2018-07-01T04:52:06.211Z,62.11
2018-07-01T04:53:06.630Z,62.16
2018-07-01T04:54:07.104Z,62.19
2018-07-01T04:55:07.597Z,62.13
2018-07-01T04:56:08.045Z,62.19
2018-07-01T04:57:08.570Z,62.19
2018-07-01T04:58:08.990Z,62.24
2018-07-01T04:59:09.466Z,62.33
2018-07-01T05:00:09.936Z,62.35
2018-07-01T05:01:10.408Z,62.32
2018-07-01T05:02:10.899Z,62.35
2018-07-01T05:03:11.353Z,62.35
2018-07-01T05:04:11.828Z,62.41
2018-07-01T05:05:12.300Z,62.40
2018-07-01T05:06:12.773Z,62.40
2018-07-01T05:07:13.249Z,62.40
2018-07-01T05:08:13.720Z,62.40
2018-07-01T05:09:14.200Z,62.37
2018-07-01T05:10:14.669Z,62.43
2018-07-01T05:11:15.141Z,62.46
2018-07-01T05:12:15.616Z,62.40
2018-07-01T05:14:16.568Z,62.45
2018-07-01T05:15:17.040Z,62.51
2018-07-01T05:16:17.518Z,62.54
2018-07-01T05:17:17.990Z,62.59
2018-07-01T05:18:18.467Z,62.76
2018-07-01T05:19:18.941Z,62.85
2018-07-01T05:20:19.416Z,62.82
2018-07-01T05:21:19.892Z,62.93
2018-07-01T05:22:20.367Z,62.96
2018-07-01T05:23:20.846Z,63.07
2018-07-01T05:24:21.316Z,63.13
2018-07-01T05:25:21.794Z,63.30
2018-07-01T05:26:22.267Z,63.18
2018-07-01T05:27:22.743Z,63.27
2018-07-01T05:28:23.217Z,63.35
2018-07-01T05:29:23.691Z,63.41
2018-07-01T05:30:24.168Z,63.32
2018-07-01T05:31:24.640Z,63.41
2018-07-01T05:32:25.115Z,63.38
2018-07-01T05:33:25.590Z,63.32
2018-07-01T05:34:26.060Z,63.43
2018-07-01T05:35:26.536Z,63.58
2018-07-01T05:36:27.008Z,63.52
2018-07-01T05:37:27.538Z,63.55
2018-07-01T05:38:27.957Z,63.66
2018-07-01T05:39:28.427Z,63.60
2018-07-01T05:40:28.901Z,63.74
2018-07-01T05:41:29.373Z,63.63
2018-07-01T05:42:29.847Z,63.74
2018-07-01T05:43:30.320Z,63.83
2018-07-01T05:44:30.794Z,63.62
2018-07-01T05:45:31.266Z,63.62
2018-07-01T05:46:31.739Z,63.62
2018-07-01T05:47:32.211Z,63.76
2018-07-01T05:48:32.687Z,63.79
2018-07-01T05:49:33.152Z,63.71
2018-07-01T05:50:33.626Z,63.73
2018-07-01T05:51:34.100Z,63.76
2018-07-01T05:52:34.567Z,63.88
2018-07-01T05:53:35.043Z,63.87
2018-07-01T05:54:35.510Z,63.85
2018-07-01T05:55:35.981Z,63.90
2018-07-01T05:56:36.452Z,64.10
2018-07-01T05:57:36.925Z,64.07
2018-07-01T05:58:37.396Z,63.96
2018-07-01T05:59:37.870Z,64.07
2018-07-01T06:00:38.338Z,64.04
2018-07-01T06:01:38.809Z,64.02
2018-07-01T06:02:39.280Z,64.10
2018-07-01T06:03:39.753Z,63.99
2018-07-01T06:04:40.224Z,64.13
2018-07-01T06:05:40.695Z,64.18
2018-07-01T06:06:41.167Z,64.15
2018-07-01T06:07:41.637Z,64.10
2018-07-01T06:08:42.178Z,64.18
2018-07-01T06:09:42.582Z,64.32
2018-07-01T06:10:43.053Z,64.21
2018-07-01T06:12:43.998Z,64.27
2018-07-01T06:13:44.472Z,64.21
2018-07-01T06:14:44.947Z,64.18
2018-07-01T06:15:45.418Z,64.18
2018-07-01T06:16:45.976Z,64.18
2018-07-01T06:17:46.366Z,64.26
2018-07-01T06:18:46.837Z,64.24
2018-07-01T06:19:47.316Z,64.15
2018-07-01T06:20:47.784Z,64.18
2018-07-01T06:21:48.259Z,64.13
2018-07-01T06:22:48.733Z,64.04
2018-07-01T06:23:49.207Z,64.07
2018-07-01T06:24:49.687Z,64.21
2018-07-01T06:25:50.159Z,64.30
2018-07-01T06:26:50.638Z,64.30
2018-07-01T06:27:51.158Z,64.21
2018-07-01T06:28:51.585Z,64.24
2018-07-01T06:29:52.058Z,64.27
2018-07-01T06:30:52.532Z,64.10
2018-07-01T06:31:53.007Z,64.16
2018-07-01T06:32:53.508Z,64.16
2018-07-01T06:33:53.961Z,64.28
2018-07-01T06:34:54.433Z,64.25
2018-07-01T06:35:55.111Z,64.28
2018-07-01T06:36:55.385Z,64.22
2018-07-01T06:37:55.858Z,64.19
2018-07-01T06:38:56.340Z,64.08
2018-07-01T06:39:56.808Z,64.16
2018-07-01T06:40:57.283Z,64.11
2018-07-01T06:41:57.770Z,64.20
2018-07-01T06:42:58.232Z,64.14
2018-07-01T06:43:58.707Z,64.14
2018-07-01T06:44:59.180Z,64.11
2018-07-01T06:45:59.653Z,64.09
2018-07-01T06:47:00.129Z,64.00
2018-07-01T06:48:00.605Z,63.98
2018-07-01T06:49:01.080Z,64.04
2018-07-01T06:50:01.550Z,64.01
2018-07-01T06:51:02.022Z,64.01
2018-07-01T06:52:02.497Z,63.95
2018-07-01T06:53:03.023Z,63.95
2018-07-01T06:54:03.442Z,63.84
2018-07-01T06:55:03.917Z,63.96
2018-07-01T06:56:04.642Z,63.93
2018-07-01T06:57:04.861Z,63.90
2018-07-01T06:58:05.384Z,63.99
2018-07-01T06:59:05.805Z,64.07
2018-07-01T07:00:06.278Z,64.07
2018-07-01T07:01:06.749Z,63.99
2018-07-01T07:02:07.227Z,64.07
2018-07-01T07:03:07.695Z,63.99
2018-07-01T07:04:08.167Z,63.99
2018-07-01T07:05:08.637Z,63.96
2018-07-01T07:06:09.150Z,63.93
2018-07-01T07:07:09.783Z,64.02
2018-07-01T07:08:10.158Z,63.94
2018-07-01T07:09:10.524Z,63.97
2018-07-01T07:10:10.994Z,64.00
2018-07-01T07:11:11.465Z,64.00
2018-07-01T07:12:11.937Z,64.05
2018-07-01T07:13:12.459Z,64.05
2018-07-01T07:14:12.880Z,64.03
2018-07-01T07:15:13.352Z,63.89
2018-07-01T07:16:13.838Z,63.97
2018-07-01T07:17:14.293Z,63.97
2018-07-01T07:18:14.766Z,64.03
2018-07-01T07:19:15.243Z,63.98
2018-07-01T07:20:15.708Z,64.09
2018-07-01T07:21:16.184Z,64.09
2018-07-01T07:22:16.652Z,63.87
2018-07-01T07:23:17.126Z,63.95
2018-07-01T07:24:17.599Z,63.98
2018-07-01T07:25:18.071Z,63.90
2018-07-01T07:26:18.544Z,63.81
2018-07-01T07:27:19.015Z,63.90
2018-07-01T07:28:19.489Z,64.04
2018-07-01T07:29:19.960Z,64.04
2018-07-01T07:30:20.435Z,64.02
2018-07-01T07:31:20.909Z,63.93
2018-07-01T07:32:21.381Z,64.08
2018-07-01T07:33:21.856Z,63.97
2018-07-01T07:34:22.330Z,64.02
2018-07-01T07:35:22.807Z,64.02
2018-07-01T07:36:23.281Z,63.94
2018-07-01T07:37:23.756Z,63.97
2018-07-01T07:38:24.634Z,64.12
2018-07-01T07:39:24.705Z,64.15
2018-07-01T07:40:25.178Z,63.98
2018-07-01T07:41:25.655Z,63.98
2018-07-01T07:42:26.129Z,64.09
2018-07-01T07:43:26.609Z,64.10
2018-07-01T07:44:27.080Z,63.93
2018-07-01T07:45:27.555Z,64.16
2018-07-01T07:46:28.031Z,64.19
2018-07-01T07:47:28.506Z,64.10
2018-07-01T07:48:28.981Z,64.16
2018-07-01T07:49:29.462Z,64.25
2018-07-01T07:50:29.933Z,64.17
2018-07-01T07:51:30.449Z,64.14
2018-07-01T07:52:30.884Z,64.06
2018-07-01T07:53:31.359Z,64.14
2018-07-01T07:54:31.833Z,64.15
2018-07-01T07:55:32.307Z,64.15
2018-07-01T07:56:32.784Z,64.07
2018-07-01T07:57:33.256Z,64.04
2018-07-01T07:58:33.731Z,64.04
2018-07-01T07:59:34.205Z,63.99
2018-07-01T08:00:34.682Z,63.90
2018-07-01T08:01:35.152Z,63.93
2018-07-01T08:02:35.626Z,63.99
2018-07-01T08:03:36.106Z,63.93
2018-07-01T08:04:36.575Z,64.02
2018-07-01T08:05:37.047Z,64.05
2018-07-01T08:06:37.522Z,64.08
2018-07-01T08:07:38.006Z,63.91
2018-07-01T08:08:38.471Z,64.00
2018-07-01T08:09:38.941Z,63.92
2018-07-01T08:10:39.413Z,63.92
2018-07-01T08:11:39.949Z,63.78
2018-07-01T08:12:40.372Z,63.78
2018-07-01T08:13:40.833Z,63.90
2018-07-01T08:14:41.305Z,63.70
2018-07-01T08:15:41.778Z,63.90
2018-07-01T08:16:42.248Z,63.76
2018-07-01T08:17:42.723Z,63.79
2018-07-01T08:18:43.193Z,63.91
2018-07-01T08:19:43.666Z,63.97
2018-07-01T08:20:44.135Z,64.08
2018-07-01T08:21:44.608Z,64.05
2018-07-01T08:22:45.082Z,64.05
2018-07-01T08:23:45.553Z,64.00
2018-07-01T08:24:46.226Z,64.05
2018-07-01T08:25:46.496Z,63.91
2018-07-01T08:26:46.965Z,63.80
2018-07-01T08:27:47.437Z,63.72
2018-07-01T08:28:47.957Z,63.97
2018-07-01T08:29:48.380Z,63.89
2018-07-01T08:30:48.850Z,64.09
2018-07-01T08:31:49.328Z,64.06
2018-07-01T08:32:49.794Z,64.14
2018-07-01T08:33:50.267Z,63.97
2018-07-01T08:34:50.742Z,63.92
2018-07-01T08:35:51.209Z,63.92
2018-07-01T08:36:51.683Z,63.86
2018-07-01T08:37:52.163Z,63.86
2018-07-01T08:38:52.625Z,63.80
2018-07-01T08:39:53.097Z,64.06
2018-07-01T08:40:53.570Z,64.03
2018-07-01T08:41:54.043Z,63.92
2018-07-01T08:42:54.515Z,64.01
2018-07-01T08:43:54.990Z,63.92
2018-07-01T08:44:55.463Z,63.98
2018-07-01T08:45:55.936Z,64.03
2018-07-01T08:46:56.410Z,64.06
2018-07-01T08:47:56.886Z,64.01
2018-07-01T08:48:57.356Z,63.95
2018-07-01T08:49:57.833Z,63.99
2018-07-01T08:50:58.308Z,64.04
2018-07-01T08:51:58.782Z,63.99
2018-07-01T08:52:59.257Z,63.96
2018-07-01T08:53:59.731Z,63.99
2018-07-01T08:55:00.204Z,63.90
2018-07-01T08:56:00.682Z,63.96
2018-07-01T08:57:01.155Z,64.02
2018-07-01T08:58:01.633Z,64.19
2018-07-01T08:59:02.109Z,64.11
2018-07-01T09:00:02.584Z,63.94
2018-07-01T09:01:03.065Z,63.97
2018-07-01T09:02:03.533Z,63.86
2018-07-01T09:03:04.009Z,63.94
2018-07-01T09:04:04.486Z,64.20
2018-07-01T09:05:04.963Z,63.86
2018-07-01T09:06:05.436Z,63.81
2018-07-01T09:07:06.114Z,63.78
2018-07-01T09:08:06.387Z,63.75
2018-07-01T09:09:06.860Z,63.81
2018-07-01T09:10:07.336Z,63.93
2018-07-01T09:11:07.810Z,63.95
2018-07-01T09:12:08.288Z,64.04
2018-07-01T09:13:08.759Z,63.96
2018-07-01T09:14:09.235Z,63.82
2018-07-01T09:15:09.708Z,63.73
2018-07-01T09:16:10.185Z,63.96
2018-07-01T09:17:10.711Z,63.76
2018-07-01T09:18:11.130Z,63.88
2018-07-01T09:19:11.656Z,63.85
2018-07-01T09:20:12.083Z,63.71
2018-07-01T09:21:12.551Z,63.63
2018-07-01T09:22:13.035Z,63.69
2018-07-01T09:23:13.499Z,63.69
2018-07-01T09:24:13.974Z,63.53
2018-07-01T09:25:14.446Z,63.53
2018-07-01T09:26:14.919Z,63.70
2018-07-01T09:27:15.393Z,63.81
2018-07-01T09:28:15.866Z,63.84
2018-07-01T09:29:16.342Z,63.59
2018-07-01T09:30:16.810Z,63.65
2018-07-01T09:31:17.284Z,63.52
2018-07-01T09:32:17.757Z,63.49
2018-07-01T09:33:18.228Z,63.55
2018-07-01T09:34:18.703Z,63.78
2018-07-01T09:35:19.174Z,63.78
2018-07-01T09:36:19.644Z,63.73
2018-07-01T09:37:20.117Z,63.56
2018-07-01T09:38:20.593Z,63.42
2018-07-01T09:39:21.061Z,63.40
2018-07-01T09:40:21.532Z,63.40
2018-07-01T09:41:22.007Z,63.49
2018-07-01T09:42:22.475Z,63.41
2018-07-01T09:43:22.970Z,63.41
2018-07-01T09:44:23.469Z,63.41
2018-07-01T09:45:23.891Z,63.24
2018-07-01T09:46:24.361Z,63.16
2018-07-01T09:47:24.833Z,63.16
2018-07-01T09:48:25.308Z,63.14
2018-07-01T09:49:25.777Z,63.11
2018-07-01T09:50:26.330Z,63.35
2018-07-01T09:51:26.719Z,63.35
2018-07-01T09:52:27.195Z,63.46
2018-07-01T09:53:27.663Z,63.29
2018-07-01T09:54:28.135Z,63.16
2018-07-01T09:55:28.609Z,63.08
2018-07-01T09:56:29.084Z,63.14
2018-07-01T09:57:29.553Z,63.08
2018-07-01T09:58:30.026Z,63.03
2018-07-01T09:59:30.504Z,62.89
2018-07-01T10:00:30.974Z,63.15
2018-07-01T10:01:31.446Z,62.98
2018-07-01T10:02:31.919Z,62.93
2018-07-01T10:03:32.394Z,62.88
2018-07-01T10:04:32.871Z,62.79
2018-07-01T10:05:33.343Z,62.89
2018-07-01T10:06:33.817Z,62.81
2018-07-01T10:07:34.294Z,62.69
2018-07-01T10:08:34.768Z,62.78
2018-07-01T10:09:35.244Z,62.70
2018-07-01T10:10:35.717Z,62.68
2018-07-01T10:11:36.194Z,62.48
2018-07-01T10:12:36.671Z,62.55
2018-07-01T10:13:37.147Z,62.44
2018-07-01T10:14:37.621Z,62.33
2018-07-01T10:15:38.096Z,62.30
2018-07-01T10:16:38.571Z,62.22
2018-07-01T10:17:39.251Z,62.11
2018-07-01T10:19:40.055Z,62.09
2018-07-01T10:20:40.475Z,62.04
2018-07-01T10:21:40.951Z,62.07
2018-07-01T10:22:41.426Z,62.34
2018-07-01T10:23:41.903Z,61.97
2018-07-01T10:24:42.380Z,61.80
2018-07-01T10:25:42.857Z,61.81
2018-07-01T10:26:43.329Z,61.70
2018-07-01T10:27:43.807Z,61.65
2018-07-01T10:28:44.287Z,61.59
2018-07-01T10:29:44.757Z,61.51
2018-07-01T10:30:45.230Z,61.52
2018-07-01T10:31:45.710Z,61.40
2018-07-01T10:32:46.184Z,61.50
2018-07-01T10:33:46.655Z,61.33
2018-07-01T10:34:47.133Z,61.30
2018-07-01T10:35:47.608Z,61.22
2018-07-01T10:36:48.082Z,61.23
2018-07-01T10:37:48.556Z,61.23
2018-07-01T10:38:49.031Z,61.15
2018-07-01T10:39:49.505Z,61.10
2018-07-01T10:40:49.981Z,61.10
2018-07-01T10:41:50.454Z,61.13
2018-07-01T10:42:51.131Z,61.19
2018-07-01T10:43:51.405Z,61.08
2018-07-01T10:44:51.927Z,61.00
2018-07-01T10:45:52.361Z,60.94
2018-07-01T10:46:52.827Z,60.91
2018-07-01T10:47:53.297Z,60.89
2018-07-01T10:48:53.773Z,60.92
2018-07-01T10:49:54.295Z,60.92
2018-07-01T10:50:54.722Z,60.95
2018-07-01T10:51:55.192Z,60.90
2018-07-01T10:52:55.668Z,60.84
2018-07-01T10:53:56.138Z,60.87
2018-07-01T10:54:56.664Z,60.81
2018-07-01T10:55:57.085Z,60.79
2018-07-01T10:56:57.556Z,60.81
2018-07-01T10:57:58.031Z,60.81
2018-07-01T10:58:58.502Z,60.84
2018-07-01T10:59:58.976Z,60.73
2018-07-01T11:00:59.448Z,60.70
2018-07-01T11:01:59.920Z,60.70
2018-07-01T11:03:00.394Z,60.79
2018-07-01T11:04:00.864Z,60.79
2018-07-01T11:05:01.338Z,60.76
2018-07-01T11:06:01.929Z,60.76
2018-07-01T11:07:02.281Z,60.77
2018-07-01T11:08:02.754Z,60.77
2018-07-01T11:09:03.227Z,60.86
2018-07-01T11:10:03.696Z,60.74
2018-07-01T11:11:04.173Z,60.71
2018-07-01T11:12:04.642Z,60.71
2018-07-01T11:13:05.116Z,60.72
2018-07-01T11:14:05.585Z,60.81
2018-07-01T11:15:06.056Z,60.58
2018-07-01T11:16:06.528Z,60.55
2018-07-01T11:17:07.000Z,60.32
2018-07-01T11:18:07.471Z,60.32
2018-07-01T11:19:07.941Z,60.46
2018-07-01T11:20:08.414Z,60.47
2018-07-01T11:21:08.886Z,60.50
2018-07-01T11:22:09.358Z,60.38
2018-07-01T11:23:09.833Z,60.48
2018-07-01T11:24:10.301Z,60.45
2018-07-01T11:25:10.773Z,60.48
2018-07-01T11:26:11.247Z,60.37
2018-07-01T11:27:11.956Z,60.22
2018-07-01T11:28:12.190Z,60.17
2018-07-01T11:29:12.664Z,60.20
2018-07-01T11:30:13.136Z,60.21
2018-07-01T11:31:13.611Z,60.12
2018-07-01T11:32:14.085Z,60.12
2018-07-01T11:33:14.559Z,60.04
2018-07-01T11:34:15.039Z,60.01
2018-07-01T11:35:15.559Z,59.96
2018-07-01T11:36:15.981Z,59.88
2018-07-01T11:37:16.455Z,59.65
2018-07-01T11:38:16.941Z,59.62
2018-07-01T11:39:17.405Z,59.68
2018-07-01T11:40:17.882Z,59.45
2018-07-01T11:41:18.361Z,59.45
2018-07-01T11:42:18.830Z,59.43
2018-07-01T11:43:19.307Z,59.49
2018-07-01T11:44:19.783Z,59.43
2018-07-01T11:45:20.260Z,59.44
2018-07-01T11:46:20.734Z,59.50
2018-07-01T11:47:21.213Z,59.45
2018-07-01T11:48:21.689Z,59.42
2018-07-01T11:49:22.167Z,59.43
2018-07-01T11:50:22.642Z,59.41
2018-07-01T11:51:23.166Z,59.29
2018-07-01T11:52:23.644Z,59.30
2018-07-01T11:53:24.071Z,59.21
2018-07-01T11:54:24.546Z,59.19
2018-07-01T11:55:25.024Z,59.11
2018-07-01T11:57:25.977Z,59.12
2018-07-01T11:58:26.452Z,59.16
2018-07-01T11:59:26.927Z,59.10
2018-07-01T12:00:27.608Z,59.08
2018-07-01T12:01:27.883Z,59.11
2018-07-01T12:02:28.357Z,59.20
2018-07-01T12:03:28.831Z,59.30
2018-07-01T12:04:29.310Z,59.33
2018-07-01T12:05:29.852Z,59.37
2018-07-01T12:06:30.264Z,59.40
2018-07-01T12:07:30.736Z,59.43
2018-07-01T12:08:31.210Z,59.53
2018-07-01T12:09:31.687Z,59.38
2018-07-01T12:10:32.214Z,59.36
2018-07-01T12:11:32.638Z,59.27
2018-07-01T12:12:33.111Z,59.31
2018-07-01T12:13:33.587Z,59.04
2018-07-01T12:14:34.062Z,58.93
2018-07-01T12:15:34.589Z,58.81
2018-07-01T12:16:35.012Z,58.81
2018-07-01T12:17:35.489Z,58.76
2018-07-01T12:18:35.964Z,58.82
2018-07-01T12:19:36.436Z,58.83
2018-07-01T12:20:36.912Z,58.83
2018-07-01T12:21:37.386Z,58.75
2018-07-01T12:22:37.859Z,58.75
2018-07-01T12:23:38.396Z,58.84
2018-07-01T12:24:38.809Z,58.81
2018-07-01T12:25:39.284Z,58.76
2018-07-01T12:26:39.757Z,58.70
2018-07-01T12:28:40.708Z,58.59
2018-07-01T12:29:41.178Z,58.62
2018-07-01T12:30:41.701Z,58.69
2018-07-01T12:31:42.126Z,58.78
2018-07-01T12:32:42.601Z,58.66
2018-07-01T12:33:43.078Z,58.55
2018-07-01T12:34:43.593Z,58.52
2018-07-01T12:35:44.072Z,58.35
2018-07-01T12:36:44.494Z,58.32
2018-07-01T12:37:44.970Z,58.20
2018-07-01T12:38:45.439Z,58.21
2018-07-01T12:39:45.915Z,58.30
2018-07-01T12:40:46.390Z,58.42
2018-07-01T12:41:46.864Z,58.40
2018-07-01T12:42:47.334Z,58.28
2018-07-01T12:43:47.808Z,58.19
2018-07-01T12:44:48.284Z,58.23
2018-07-01T12:45:48.758Z,58.32
2018-07-01T12:46:49.226Z,58.44
2018-07-01T12:47:49.771Z,58.38
2018-07-01T12:48:50.176Z,58.36
2018-07-01T12:49:50.650Z,58.30
2018-07-01T12:50:51.117Z,58.27
2018-07-01T12:51:51.592Z,58.34
2018-07-01T12:52:52.064Z,58.34
2018-07-01T12:53:52.537Z,58.34
2018-07-01T12:54:53.011Z,58.23
2018-07-01T12:55:53.484Z,58.20
2018-07-01T12:56:53.957Z,58.14
2018-07-01T12:57:54.431Z,58.14
2018-07-01T12:58:54.901Z,58.18
2018-07-01T12:59:55.374Z,58.18
2018-07-01T13:00:55.846Z,58.16
2018-07-01T13:01:56.369Z,58.19
2018-07-01T13:02:56.793Z,58.28
2018-07-01T13:03:57.265Z,58.31
2018-07-01T13:04:57.738Z,58.19
2018-07-01T13:05:58.349Z,58.14
2018-07-01T13:06:58.683Z,58.14